createdAt,value
2019-02-02T00:04:25.287Z,60766.36
2019-02-02T00:06:51.529Z,60759.70
2019-02-02T00:09:17.786Z,60767.95
2019-02-02T00:11:44.033Z,60766.36
2019-02-02T00:14:10.269Z,60766.36
2019-02-02T00:16:36.553Z,60756.84
2019-02-02T00:19:24.393Z,60766.88
2019-02-02T00:21:50.542Z,60768.30
2019-02-02T00:24:16.790Z,60754.68
2019-02-02T00:26:43.020Z,60777.42
2019-02-02T00:29:50.578Z,60769.56
2019-02-02T00:32:16.819Z,60763.97
2019-02-02T00:37:33.668Z,60772.75
2019-02-02T00:39:59.897Z,60775.95
2019-02-02T00:42:26.700Z,60776.48
2019-02-02T00:44:52.939Z,60755.18
2019-02-02T00:47:19.182Z,60763.97
2019-02-02T00:49:45.424Z,60766.48
2019-02-02T00:52:11.569Z,60762.82
2019-02-02T00:54:37.813Z,60769.10
2019-02-02T00:57:04.253Z,60777.00
2019-02-02T00:59:30.523Z,60768.75
2019-02-02T01:01:56.646Z,60773.80
2019-02-02T01:04:22.945Z,60778.07
2019-02-02T01:06:49.171Z,60769.28
2019-02-02T01:12:13.250Z,60767.84
2019-02-02T01:14:39.548Z,60781.80
2019-02-02T01:17:05.760Z,60774.27
2019-02-02T01:19:31.997Z,60785.53
2019-02-02T01:21:58.342Z,60786.60
2019-02-02T01:24:24.485Z,60791.91
2019-02-02T01:26:50.827Z,60779.32
2019-02-02T01:29:17.175Z,60796.72
2019-02-02T01:31:43.441Z,60787.75
2019-02-02T01:34:09.673Z,60801.32
2019-02-02T01:36:35.824Z,60796.44
2019-02-02T01:41:56.499Z,60807.91
2019-02-02T01:47:00.119Z,60794.75
2019-02-02T01:49:26.447Z,60806.91
2019-02-02T01:51:52.694Z,60812.29
2019-02-02T01:54:18.869Z,60809.93
2019-02-02T01:56:45.090Z,60823.35
2019-02-02T01:59:11.386Z,60817.22
2019-02-02T02:01:37.616Z,60826.55
2019-02-02T02:06:57.590Z,60829.75
2019-02-02T02:09:23.828Z,60832.94
2019-02-02T02:11:50.081Z,60834.55
2019-02-02T02:14:16.339Z,60836.67
2019-02-02T02:16:42.582Z,60838.82
2019-02-02T02:19:08.812Z,60838.82
2019-02-02T02:21:35.046Z,60837.75
2019-02-02T02:24:01.272Z,60828.41
2019-02-02T02:26:27.508Z,60828.41
2019-02-02T02:28:53.739Z,60840.94
2019-02-02T02:31:19.973Z,60831.96
2019-02-02T02:33:46.202Z,60843.58
2019-02-02T02:36:12.332Z,60847.32
2019-02-02T02:38:38.459Z,60840.13
2019-02-02T02:41:04.709Z,60851.58
2019-02-02T02:43:30.840Z,60847.24
2019-02-02T02:45:56.986Z,60851.32
2019-02-02T02:48:23.218Z,60854.52
2019-02-02T02:50:49.447Z,60858.79
2019-02-02T02:53:15.686Z,60865.19
2019-02-02T02:55:41.914Z,60876.11
2019-02-02T02:58:08.157Z,60882.51
2019-02-02T03:00:34.422Z,60877.79
2019-02-02T03:03:00.545Z,60887.85
2019-02-02T03:05:26.859Z,60892.64
2019-02-02T03:08:34.425Z,60877.36
2019-02-02T03:11:00.666Z,60883.32
2019-02-02T03:13:26.803Z,60893.18
2019-02-02T03:15:53.041Z,60893.18
2019-02-02T03:18:19.270Z,60893.18
2019-02-02T03:20:45.495Z,60885.80
2019-02-02T03:23:11.729Z,60879.30
2019-02-02T03:25:37.988Z,60900.11
2019-02-02T03:28:04.218Z,60907.58
2019-02-02T03:30:30.342Z,60891.04
2019-02-02T03:32:56.595Z,60908.11
2019-02-02T03:38:36.372Z,60911.85
2019-02-02T03:41:02.612Z,60898.55
2019-02-02T03:43:28.928Z,60908.57
2019-02-02T03:45:55.081Z,60912.64
2019-02-02T03:48:21.231Z,60921.45
2019-02-02T03:50:47.455Z,60911.92
2019-02-02T03:53:13.697Z,60921.45
2019-02-02T03:55:39.827Z,60916.56
2019-02-02T03:58:06.087Z,60916.37
2019-02-02T04:00:32.310Z,60927.33
2019-02-02T04:02:58.550Z,60922.98
2019-02-02T04:05:46.262Z,60931.58
2019-02-02T04:08:12.493Z,60924.39
2019-02-02T04:10:38.736Z,60936.39
2019-02-02T04:13:04.990Z,60930.79
2019-02-02T04:15:31.213Z,60926.79
2019-02-02T04:17:57.356Z,60944.92
2019-02-02T04:20:23.576Z,60941.72
2019-02-02T04:23:31.143Z,60934.34
2019-02-02T04:28:45.070Z,60945.46
2019-02-02T04:31:11.298Z,60947.07
2019-02-02T04:33:37.558Z,60944.73
2019-02-02T04:36:03.790Z,60931.57
2019-02-02T04:38:30.029Z,60943.44
2019-02-02T04:40:56.267Z,60941.27
2019-02-02T04:43:22.503Z,60938.80
2019-02-02T04:45:48.742Z,60946.53
2019-02-02T04:48:14.980Z,60935.52
2019-02-02T04:50:41.210Z,60951.88
2019-02-02T04:53:07.506Z,60949.73
2019-02-02T04:55:33.724Z,60943.33
2019-02-02T04:57:59.947Z,60947.60
2019-02-02T05:01:07.584Z,60945.99
2019-02-02T05:03:33.825Z,60950.80
2019-02-02T05:06:00.045Z,60941.81
2019-02-02T05:08:26.300Z,60937.83
2019-02-02T05:10:52.446Z,60957.21
2019-02-02T05:13:18.683Z,60961.27
2019-02-02T05:15:44.927Z,60962.53
2019-02-02T05:18:11.168Z,60962.53
2019-02-02T05:20:37.400Z,60962.53
2019-02-02T05:23:03.630Z,60965.73
2019-02-02T05:25:29.778Z,60967.32
2019-02-02T05:27:56.083Z,60971.06
2019-02-02T05:31:03.626Z,60971.06
2019-02-02T05:33:29.854Z,60963.65
2019-02-02T05:35:56.161Z,60976.93
2019-02-02T05:38:22.404Z,60959.65
2019-02-02T05:40:48.670Z,60980.67
2019-02-02T05:43:14.960Z,60975.59
2019-02-02T05:45:41.222Z,60974.33
2019-02-02T05:48:07.460Z,60986.55
2019-02-02T05:50:33.712Z,60988.14
2019-02-02T05:52:59.999Z,60988.68
2019-02-02T05:55:26.158Z,60988.14
2019-02-02T05:57:52.409Z,60989.22
2019-02-02T06:03:14.460Z,60990.81
2019-02-02T06:05:40.708Z,60990.23
2019-02-02T06:08:06.964Z,60977.27
2019-02-02T06:10:33.082Z,60990.01
2019-02-02T06:12:59.317Z,60989.82
2019-02-02T06:15:28.480Z,61001.49
2019-02-02T06:17:53.685Z,61004.18
2019-02-02T06:20:19.925Z,60996.41
2019-02-02T06:22:46.160Z,61004.51
2019-02-02T06:25:32.046Z,60999.43
2019-02-02T06:27:58.274Z,60992.41
2019-02-02T06:30:24.412Z,61010.04
2019-02-02T06:32:50.778Z,61012.17
2019-02-02T06:35:58.289Z,61013.79
2019-02-02T06:38:24.536Z,61014.86
2019-02-02T06:40:50.784Z,61010.34
2019-02-02T06:43:17.030Z,61018.58
2019-02-02T06:45:43.277Z,61020.19
2019-02-02T06:48:09.510Z,61008.09
2019-02-02T06:50:35.737Z,61026.60
2019-02-02T06:53:23.543Z,61017.78
2019-02-02T06:55:49.779Z,61027.67
2019-02-02T06:58:16.005Z,61026.95
2019-02-02T07:00:42.237Z,61028.75
2019-02-02T07:05:45.919Z,61030.26
2019-02-02T07:08:12.154Z,61038.89
2019-02-02T07:10:38.374Z,61027.16
2019-02-02T07:13:04.625Z,61037.55
2019-02-02T07:15:30.794Z,61050.10
2019-02-02T07:17:57.039Z,61052.25
2019-02-02T07:20:23.268Z,61039.39
2019-02-02T07:22:49.506Z,61060.27
2019-02-02T07:25:15.734Z,61056.24
2019-02-02T07:27:41.967Z,61068.27
2019-02-02T07:33:21.949Z,61080.04
2019-02-02T07:35:48.169Z,61082.48
2019-02-02T07:38:14.413Z,61089.11
2019-02-02T07:40:40.643Z,61091.80
2019-02-02T07:43:06.891Z,61097.12
2019-02-02T07:45:33.114Z,61104.07
2019-02-02T07:47:59.345Z,61109.95
2019-02-02T07:50:25.681Z,61107.38
2019-02-02T07:52:51.931Z,61122.25
2019-02-02T07:55:59.488Z,61120.91
2019-02-02T07:58:25.721Z,61136.16
2019-02-02T08:00:51.954Z,61140.98
2019-02-02T08:03:18.195Z,61133.73
2019-02-02T08:05:44.429Z,61148.45
2019-02-02T08:08:10.674Z,61140.69
2019-02-02T08:10:36.797Z,61140.15
2019-02-02T08:13:44.354Z,61152.73
2019-02-02T08:16:10.596Z,61146.56
2019-02-02T08:18:36.840Z,61160.23
2019-02-02T08:24:16.676Z,61173.60
2019-02-02T08:26:42.902Z,61184.84
2019-02-02T08:29:09.136Z,61182.08
2019-02-02T08:31:35.372Z,61176.59
2019-02-02T08:34:01.717Z,61196.08
2019-02-02T08:36:27.940Z,61199.29
2019-02-02T08:38:54.089Z,61200.37
2019-02-02T08:41:20.320Z,61205.17
2019-02-02T08:43:46.457Z,61212.13
2019-02-02T08:46:12.691Z,61220.17
2019-02-02T08:48:38.936Z,61217.55
2019-02-02T08:51:05.169Z,61235.70
2019-02-02T08:53:31.406Z,61243.16
2019-02-02T08:55:57.640Z,61249.06
2019-02-02T08:58:23.918Z,61257.62
2019-02-02T09:00:50.121Z,61268.34
2019-02-02T09:03:16.349Z,61275.30
2019-02-02T09:05:42.616Z,61286.02
2019-02-02T09:08:08.811Z,61301.02
2019-02-02T09:10:35.065Z,61299.32
2019-02-02T09:13:01.189Z,61318.71
2019-02-02T09:16:08.758Z,61322.52
2019-02-02T09:18:35.001Z,61343.37
2019-02-02T09:21:01.146Z,61356.23
2019-02-02T09:23:27.376Z,61366.41
2019-02-02T09:25:53.518Z,61375.54
2019-02-02T09:28:19.743Z,61384.11
2019-02-02T09:30:45.986Z,61376.51
2019-02-02T09:33:12.249Z,61373.01
2019-02-02T09:35:38.478Z,61355.60
2019-02-02T09:38:04.707Z,61355.17
2019-02-02T09:40:30.964Z,61346.58
2019-02-02T09:42:57.203Z,61327.09
2019-02-02T09:46:04.892Z,61338.02
2019-02-02T09:48:31.120Z,61331.57
2019-02-02T09:50:57.257Z,61323.97
2019-02-02T09:53:23.498Z,61327.29
2019-02-02T09:55:49.720Z,61317.35
2019-02-02T09:58:15.956Z,61326.21
2019-02-02T10:00:42.322Z,61326.21
2019-02-02T10:03:08.555Z,61324.41
2019-02-02T10:05:34.797Z,61327.81
2019-02-02T10:08:01.026Z,61320.38
2019-02-02T10:10:48.808Z,61336.94
2019-02-02T10:13:15.045Z,61340.15
2019-02-02T10:15:41.329Z,61337.38
2019-02-02T10:18:07.567Z,61342.20
2019-02-02T10:20:33.812Z,61353.36
2019-02-02T10:22:59.963Z,61355.69
2019-02-02T10:28:26.807Z,61365.35
2019-02-02T10:30:53.040Z,61366.41
2019-02-02T10:33:19.387Z,61365.89
2019-02-02T10:35:45.610Z,61366.41
2019-02-02T10:38:12.017Z,61371.79
2019-02-02T10:40:38.161Z,61368.67
2019-02-02T10:43:04.410Z,61376.62
2019-02-02T10:45:30.641Z,61372.75
2019-02-02T10:47:56.882Z,61381.97
2019-02-02T10:53:13.212Z,61386.81
2019-02-02T10:55:39.451Z,61393.24
2019-02-02T10:58:47.125Z,61393.24
2019-02-02T11:01:13.331Z,61398.05
2019-02-02T11:03:39.583Z,61397.54
2019-02-02T11:09:13.155Z,61403.43
2019-02-02T11:11:39.515Z,61402.89
2019-02-02T11:14:06.013Z,61404.51
2019-02-02T11:16:32.314Z,61410.38
2019-02-02T11:18:58.442Z,61407.73
2019-02-02T11:21:24.732Z,61403.43
2019-02-02T11:23:51.028Z,61401.09
2019-02-02T11:29:26.434Z,61398.60
2019-02-02T11:32:02.507Z,61394.32
2019-02-02T11:34:20.817Z,61383.48
2019-02-02T11:36:47.052Z,61390.36
2019-02-02T11:39:13.301Z,61375.14
2019-02-02T11:41:39.530Z,61375.68
2019-02-02T11:44:05.807Z,61385.97
2019-02-02T11:46:31.935Z,61399.68
2019-02-02T11:48:58.186Z,61395.92
2019-02-02T11:51:24.443Z,61390.56
2019-02-02T11:53:50.676Z,61382.75
2019-02-02T11:56:16.902Z,61393.78
2019-02-02T11:58:43.146Z,61392.16
2019-02-02T12:01:09.375Z,61390.56
2019-02-02T12:03:35.620Z,61380.61
2019-02-02T12:06:01.847Z,61389.48
2019-02-02T12:08:28.135Z,61387.35
2019-02-02T12:10:54.279Z,61389.48
2019-02-02T12:13:20.529Z,61385.10
2019-02-02T12:15:54.585Z,61386.81
2019-02-02T12:18:20.832Z,61387.35
2019-02-02T12:20:47.061Z,61388.41
2019-02-02T12:23:13.203Z,61386.27
2019-02-02T12:25:39.449Z,61375.24
2019-02-02T12:28:05.700Z,61383.05
2019-02-02T12:31:13.270Z,61380.89
2019-02-02T12:33:39.882Z,61375.54
2019-02-02T12:36:06.119Z,61374.46
2019-02-02T12:38:32.363Z,61369.11
2019-02-02T12:40:59.818Z,61364.82
2019-02-02T12:45:54.694Z,61357.30
2019-02-02T12:51:34.495Z,61349.26
2019-02-02T12:54:00.760Z,61343.18
2019-02-02T12:56:26.994Z,61333.42
2019-02-02T12:58:53.152Z,61340.69
2019-02-02T13:01:19.410Z,61330.21
2019-02-02T13:03:45.640Z,61337.48
2019-02-02T13:06:11.886Z,61287.63
2019-02-02T13:08:38.099Z,61325.05
2019-02-02T13:11:04.331Z,61334.78
2019-02-02T13:13:30.570Z,61322.91
2019-02-02T13:15:56.814Z,61321.11
2019-02-02T13:18:23.048Z,61328.89
2019-02-02T13:20:49.292Z,61314.14
2019-02-02T13:23:15.513Z,61321.38
2019-02-02T13:25:41.766Z,61316.04
2019-02-02T13:28:07.892Z,61294.75
2019-02-02T13:31:20.839Z,61309.07
2019-02-02T13:33:43.512Z,61306.91
2019-02-02T13:36:09.747Z,61303.70
2019-02-02T13:38:35.977Z,61299.41
2019-02-02T13:41:02.322Z,61279.22
2019-02-02T13:43:28.550Z,61294.06
2019-02-02T13:45:54.692Z,61283.58
2019-02-02T13:48:20.938Z,61275.47
2019-02-02T13:50:47.156Z,61286.18
2019-02-02T13:53:13.332Z,61284.42
2019-02-02T13:55:40.027Z,61283.34
2019-02-02T13:58:07.778Z,61282.26
2019-02-02T14:00:34.062Z,61271.46
2019-02-02T14:03:03.323Z,61264.64
2019-02-02T14:05:28.523Z,61271.55
2019-02-02T14:08:36.067Z,61258.94
2019-02-02T14:11:02.313Z,61261.68
2019-02-02T14:13:28.567Z,61261.37
2019-02-02T14:15:54.699Z,61258.70
2019-02-02T14:18:20.948Z,61248.77
2019-02-02T14:20:47.278Z,61247.50
2019-02-02T14:23:13.541Z,61256.03
2019-02-02T14:25:39.762Z,61251.01
2019-02-02T14:28:05.992Z,61250.14
2019-02-02T14:30:32.378Z,61247.99
2019-02-02T14:32:58.599Z,61239.32
2019-02-02T14:36:06.149Z,61244.05
2019-02-02T14:38:32.421Z,61244.24
2019-02-02T14:40:58.652Z,61243.70
2019-02-02T14:43:24.893Z,61243.70
2019-02-02T14:45:51.123Z,61237.98
2019-02-02T14:51:11.799Z,61238.91
2019-02-02T14:53:38.068Z,61238.38
2019-02-02T14:56:04.290Z,61228.98
2019-02-02T14:58:30.432Z,61227.37
2019-02-02T15:00:56.674Z,61226.11
2019-02-02T15:03:25.715Z,61235.16
2019-02-02T15:05:51.047Z,61208.89
2019-02-02T15:08:17.293Z,61226.50
2019-02-02T15:10:43.521Z,61231.95
2019-02-02T15:13:09.792Z,61223.83
2019-02-02T15:15:36.026Z,61230.34
2019-02-02T15:18:02.278Z,61230.88
2019-02-02T15:21:09.818Z,61213.36
2019-02-02T15:23:35.955Z,61226.59
2019-02-02T15:26:02.240Z,61227.66
2019-02-02T15:31:22.256Z,61226.59
2019-02-02T15:33:48.509Z,61219.40
2019-02-02T15:36:14.759Z,61224.45
2019-02-02T15:38:41.018Z,61213.99
2019-02-02T15:41:07.253Z,61213.27
2019-02-02T15:43:33.478Z,61221.39
2019-02-02T15:45:59.716Z,61215.79
2019-02-02T15:48:25.955Z,61225.53
2019-02-02T15:50:52.297Z,61228.74
2019-02-02T15:53:18.565Z,61231.41
2019-02-02T15:55:44.793Z,61213.27
2019-02-02T15:58:11.020Z,61224.70
2019-02-02T16:00:37.262Z,61235.16
2019-02-02T16:06:04.230Z,61237.30
2019-02-02T16:08:30.458Z,61241.05
2019-02-02T16:10:56.710Z,61232.73
2019-02-02T16:13:22.933Z,61242.43
2019-02-02T16:15:49.097Z,61235.39
2019-02-02T16:18:15.325Z,61244.78
2019-02-02T16:21:22.866Z,61244.78
2019-02-02T16:23:49.100Z,61245.86
2019-02-02T16:26:15.353Z,61235.93
2019-02-02T16:28:41.587Z,61244.59
2019-02-02T16:31:07.861Z,61241.48
2019-02-02T16:33:34.084Z,61242.35
2019-02-02T16:36:00.317Z,61235.44
2019-02-02T16:38:26.556Z,61246.64
2019-02-02T16:40:52.792Z,61238.51
2019-02-02T16:43:19.019Z,61257.62
2019-02-02T16:45:45.268Z,61261.37
2019-02-02T16:48:11.493Z,61261.91
2019-02-02T16:50:37.740Z,61263.53
2019-02-02T16:53:03.965Z,61262.45
2019-02-02T16:55:30.204Z,61267.80
2019-02-02T16:57:56.437Z,61260.32
2019-02-02T17:01:03.990Z,61276.38
2019-02-02T17:03:30.245Z,61277.46
2019-02-02T17:05:56.504Z,61282.26
2019-02-02T17:08:22.857Z,61277.16
2019-02-02T17:10:49.085Z,61279.50
2019-02-02T17:13:15.319Z,61278.77
2019-02-02T17:15:41.579Z,61289.77
2019-02-02T17:18:07.801Z,61281.45
2019-02-02T17:20:53.697Z,61290.84
2019-02-02T17:23:20.035Z,61281.80
2019-02-02T17:25:46.274Z,61282.86
2019-02-02T17:28:12.516Z,61293.52
2019-02-02T17:30:38.748Z,61294.59
2019-02-02T17:33:26.556Z,61284.66
2019-02-02T17:35:52.941Z,61296.19
2019-02-02T17:38:19.268Z,61298.35
2019-02-02T17:43:33.119Z,61298.35
2019-02-02T17:45:59.377Z,61294.16
2019-02-02T17:48:25.619Z,61294.70
2019-02-02T17:50:51.863Z,61302.64
2019-02-02T17:53:18.008Z,61282.58
2019-02-02T17:55:44.246Z,61296.31
2019-02-02T17:58:13.322Z,61299.32
2019-02-02T18:03:35.168Z,61311.20
2019-02-02T18:06:01.401Z,61311.20
2019-02-02T18:08:27.564Z,61312.28
2019-02-02T18:10:53.756Z,61315.49
2019-02-02T18:13:19.993Z,61319.79
2019-02-02T18:15:46.235Z,61317.79
2019-02-02T18:18:12.482Z,61323.00
2019-02-02T18:20:38.707Z,61326.75
2019-02-02T18:23:04.961Z,61328.89
2019-02-02T18:25:31.199Z,61322.91
2019-02-02T18:27:57.444Z,61322.70
2019-02-02T18:33:37.261Z,61328.07
2019-02-02T18:36:03.499Z,61340.15
2019-02-02T18:38:29.748Z,61326.55
2019-02-02T18:40:55.989Z,61344.45
2019-02-02T18:43:22.129Z,61343.91
2019-02-02T18:45:48.357Z,61333.96
2019-02-02T18:48:14.603Z,61337.90
2019-02-02T18:50:40.743Z,61344.45
2019-02-02T18:53:07.029Z,61349.80
2019-02-02T18:56:14.585Z,61349.26
2019-02-02T18:58:40.975Z,61340.39
2019-02-02T19:01:07.104Z,61349.94
2019-02-02T19:03:33.254Z,61351.21
2019-02-02T19:05:59.480Z,61353.01
2019-02-02T19:08:25.735Z,61351.95
2019-02-02T19:10:51.960Z,61353.01
2019-02-02T19:13:18.193Z,61354.63
2019-02-02T19:15:44.459Z,61354.63
2019-02-02T19:18:10.676Z,61357.30
2019-02-02T19:20:36.934Z,61349.89
2019-02-02T19:26:16.500Z,61347.36
2019-02-02T19:28:42.731Z,61349.52
2019-02-02T19:31:08.970Z,61349.52
2019-02-02T19:33:35.117Z,61358.38
2019-02-02T19:36:01.366Z,61359.44
2019-02-02T19:38:27.497Z,61360.52
2019-02-02T19:40:53.750Z,61351.11
2019-02-02T19:43:19.977Z,61352.73
2019-02-02T19:45:46.224Z,61359.98
2019-02-02T19:48:12.452Z,61361.60
2019-02-02T19:50:38.596Z,61362.68
2019-02-02T19:53:04.941Z,61361.60
2019-02-02T19:55:31.273Z,61361.60
2019-02-02T19:57:57.415Z,61361.60
2019-02-02T20:01:04.968Z,61363.20
2019-02-02T20:03:31.097Z,61363.55
2019-02-02T20:05:57.234Z,61364.82
2019-02-02T20:08:23.461Z,61365.35
2019-02-02T20:10:49.635Z,61366.95
2019-02-02T20:13:15.855Z,61366.95
2019-02-02T20:15:42.105Z,61360.43
2019-02-02T20:18:10.296Z,61369.65
2019-02-02T20:20:36.501Z,61368.57
2019-02-02T20:23:44.034Z,61369.11
2019-02-02T20:26:10.308Z,61371.25
2019-02-02T20:28:36.533Z,61371.79
2019-02-02T20:31:02.897Z,61371.79
2019-02-02T20:33:29.135Z,61371.25
2019-02-02T20:35:55.384Z,61370.71
2019-02-02T20:38:21.634Z,61371.25
2019-02-02T20:40:47.891Z,61372.32
2019-02-02T20:43:14.126Z,61372.32
2019-02-02T20:45:40.364Z,61374.46
2019-02-02T20:48:06.608Z,61373.38
2019-02-02T20:50:32.839Z,61372.12
2019-02-02T20:52:59.077Z,61374.46
2019-02-02T20:58:39.103Z,61375.00
2019-02-02T21:01:05.352Z,61366.67
2019-02-02T21:03:31.774Z,61377.68
2019-02-02T21:05:58.012Z,61377.14
2019-02-02T21:08:24.156Z,61378.76
2019-02-02T21:10:50.405Z,61378.57
2019-02-02T21:13:16.532Z,61372.23
2019-02-02T21:15:42.764Z,61379.84
2019-02-02T21:18:11.839Z,61378.76
2019-02-02T21:20:37.129Z,61370.96
2019-02-02T21:23:03.470Z,61379.84
2019-02-02T21:25:29.707Z,61382.51
2019-02-02T21:28:15.700Z,61381.97
2019-02-02T21:30:41.960Z,61385.19
2019-02-02T21:33:08.203Z,61384.65
2019-02-02T21:35:34.437Z,61376.32
2019-02-02T21:38:00.578Z,61386.81
2019-02-02T21:43:40.952Z,61381.15
2019-02-02T21:46:07.294Z,61391.08
2019-02-02T21:48:36.228Z,61381.69
2019-02-02T21:53:29.624Z,61382.75
2019-02-02T21:55:55.753Z,61392.70
2019-02-02T21:58:21.904Z,61393.78
2019-02-02T22:00:48.139Z,61394.65
2019-02-02T22:03:14.382Z,61396.46
2019-02-02T22:05:40.513Z,61398.05
2019-02-02T22:11:00.944Z,61395.92
2019-02-02T22:13:27.187Z,61397.54
2019-02-02T22:15:53.424Z,61397.00
2019-02-02T22:18:21.753Z,61390.99
2019-02-02T22:20:47.797Z,61399.14
2019-02-02T22:23:14.148Z,61398.05
2019-02-02T22:25:40.375Z,61390.26
2019-02-02T22:28:06.607Z,61400.21
2019-02-02T22:31:14.162Z,61399.68
2019-02-02T22:33:40.407Z,61398.05
2019-02-02T22:36:06.637Z,61394.46
2019-02-02T22:38:32.784Z,61397.00
2019-02-02T22:40:58.933Z,61389.93
2019-02-02T22:43:25.163Z,61390.45
2019-02-02T22:45:53.220Z,61395.92
2019-02-02T22:48:19.363Z,61389.39
2019-02-02T22:50:45.612Z,61387.92
2019-02-02T22:53:11.850Z,61396.46
2019-02-02T22:55:37.993Z,61386.50
2019-02-02T22:58:04.226Z,61395.92
2019-02-02T23:01:11.771Z,61394.84
2019-02-02T23:10:18.901Z,61392.70
2019-02-02T23:16:18.119Z,61391.62
2019-02-02T23:18:46.802Z,61383.05
2019-02-02T23:21:12.520Z,61391.62
2019-02-02T23:23:38.759Z,61390.56
2019-02-02T23:26:04.897Z,61391.62
2019-02-02T23:28:31.132Z,61379.54
2019-02-02T23:30:57.368Z,61382.75
2019-02-02T23:33:23.609Z,61381.69
2019-02-02T23:35:49.845Z,61388.41
2019-02-02T23:38:16.083Z,61386.08
2019-02-02T23:40:42.308Z,61381.58
2019-02-02T23:43:08.544Z,61384.11
2019-02-02T23:45:34.774Z,61384.11
2019-02-02T23:48:42.399Z,61384.65
2019-02-02T23:51:08.641Z,61383.59
2019-02-02T23:53:34.794Z,61383.05
2019-02-02T23:56:01.045Z,61384.11
2019-02-02T23:58:27.197Z,61383.05
